sensor_id;sensor_type;location;lat;lon;timestamp;P1;durP1;ratioP1;P2;durP2;ratioP2
4810;SDS011;2419;51.276;6.472;2023-08-12T00:00:21;22.07;;;14.57;;
4810;SDS011;2419;51.276;6.472;2023-08-12T00:02:50;24.10;;;14.70;;
4810;SDS011;2419;51.276;6.472;2023-08-12T00:05:18;22.20;;;13.60;;
4810;SDS011;2419;51.276;6.472;2023-08-12T00:07:47;22.90;;;13.97;;
4810;SDS011;2419;51.276;6.472;2023-08-12T00:10:16;21.60;;;13.57;;
4810;SDS011;2419;51.276;6.472;2023-08-12T00:12:44;23.27;;;14.00;;
4810;SDS011;2419;51.276;6.472;2023-08-12T00:15:12;23.70;;;13.73;;
4810;SDS011;2419;51.276;6.472;2023-08-12T00:17:40;23.53;;;14.63;;
4810;SDS011;2419;51.276;6.472;2023-08-12T00:20:10;23.20;;;14.73;;
4810;SDS011;2419;51.276;6.472;2023-08-12T00:22:39;22.80;;;13.93;;
4810;SDS011;2419;51.276;6.472;2023-08-12T00:25:08;23.10;;;14.40;;
4810;SDS011;2419;51.276;6.472;2023-08-12T00:27:36;24.50;;;14.77;;
4810;SDS011;2419;51.276;6.472;2023-08-12T00:30:05;23.27;;;13.87;;
4810;SDS011;2419;51.276;6.472;2023-08-12T00:32:34;20.50;;;14.27;;
4810;SDS011;2419;51.276;6.472;2023-08-12T00:35:02;23.33;;;14.47;;
4810;SDS011;2419;51.276;6.472;2023-08-12T00:37:33;22.37;;;16.13;;
4810;SDS011;2419;51.276;6.472;2023-08-12T00:40:01;24.37;;;14.30;;
4810;SDS011;2419;51.276;6.472;2023-08-12T00:42:31;24.33;;;14.20;;
4810;SDS011;2419;51.276;6.472;2023-08-12T00:44:59;25.20;;;14.13;;
4810;SDS011;2419;51.276;6.472;2023-08-12T00:47:27;23.50;;;15.60;;
4810;SDS011;2419;51.276;6.472;2023-08-12T00:49:57;20.83;;;14.70;;
4810;SDS011;2419;51.276;6.472;2023-08-12T00:52:26;21.83;;;15.20;;
4810;SDS011;2419;51.276;6.472;2023-08-12T00:54:56;22.73;;;15.10;;
4810;SDS011;2419;51.276;6.472;2023-08-12T00:57:24;23.63;;;15.00;;
4810;SDS011;2419;51.276;6.472;2023-08-12T00:59:52;22.10;;;14.90;;
4810;SDS011;2419;51.276;6.472;2023-08-12T01:02:22;21.80;;;15.17;;
4810;SDS011;2419;51.276;6.472;2023-08-12T01:04:51;27.33;;;15.50;;
4810;SDS011;2419;51.276;6.472;2023-08-12T01:07:19;26.07;;;15.93;;
4810;SDS011;2419;51.276;6.472;2023-08-12T01:09:48;24.87;;;15.70;;
4810;SDS011;2419;51.276;6.472;2023-08-12T01:12:18;26.20;;;15.43;;
4810;SDS011;2419;51.276;6.472;2023-08-12T01:14:55;25.13;;;14.33;;
4810;SDS011;2419;51.276;6.472;2023-08-12T01:17:29;22.70;;;15.80;;
4810;SDS011;2419;51.276;6.472;2023-08-12T01:19:58;21.63;;;15.67;;
4810;SDS011;2419;51.276;6.472;2023-08-12T01:22:27;25.37;;;15.53;;
4810;SDS011;2419;51.276;6.472;2023-08-12T01:25:00;22.53;;;15.30;;
4810;SDS011;2419;51.276;6.472;2023-08-12T01:27:28;26.20;;;14.83;;
4810;SDS011;2419;51.276;6.472;2023-08-12T01:29:56;27.60;;;15.87;;
4810;SDS011;2419;51.276;6.472;2023-08-12T01:32:25;25.30;;;16.00;;
4810;SDS011;2419;51.276;6.472;2023-08-12T01:35:01;23.47;;;16.30;;
4810;SDS011;2419;51.276;6.472;2023-08-12T01:37:34;22.90;;;15.27;;
4810;SDS011;2419;51.276;6.472;2023-08-12T01:40:07;20.60;;;13.90;;
4810;SDS011;2419;51.276;6.472;2023-08-12T01:42:38;24.20;;;15.47;;
4810;SDS011;2419;51.276;6.472;2023-08-12T01:45:07;24.27;;;16.80;;
4810;SDS011;2419;51.276;6.472;2023-08-12T01:47:35;28.70;;;16.30;;
4810;SDS011;2419;51.276;6.472;2023-08-12T01:50:05;25.13;;;15.43;;
4810;SDS011;2419;51.276;6.472;2023-08-12T01:52:33;21.93;;;14.67;;
4810;SDS011;2419;51.276;6.472;2023-08-12T01:55:02;27.60;;;16.57;;
4810;SDS011;2419;51.276;6.472;2023-08-12T01:57:32;23.80;;;15.93;;
4810;SDS011;2419;51.276;6.472;2023-08-12T02:00:02;27.10;;;16.57;;
4810;SDS011;2419;51.276;6.472;2023-08-12T02:02:41;22.73;;;15.97;;
4810;SDS011;2419;51.276;6.472;2023-08-12T02:05:12;20.93;;;13.77;;
4810;SDS011;2419;51.276;6.472;2023-08-12T02:07:41;24.50;;;15.30;;
4810;SDS011;2419;51.276;6.472;2023-08-12T02:10:09;35.17;;;17.80;;
4810;SDS011;2419;51.276;6.472;2023-08-12T02:12:39;22.27;;;15.80;;
4810;SDS011;2419;51.276;6.472;2023-08-12T02:15:07;25.77;;;17.30;;
4810;SDS011;2419;51.276;6.472;2023-08-12T02:17:35;22.00;;;16.87;;
4810;SDS011;2419;51.276;6.472;2023-08-12T02:20:04;28.83;;;17.50;;
4810;SDS011;2419;51.276;6.472;2023-08-12T02:22:33;25.17;;;16.80;;
4810;SDS011;2419;51.276;6.472;2023-08-12T02:25:02;28.80;;;16.37;;
4810;SDS011;2419;51.276;6.472;2023-08-12T02:27:30;27.33;;;16.80;;
4810;SDS011;2419;51.276;6.472;2023-08-12T02:30:00;38.07;;;17.97;;
4810;SDS011;2419;51.276;6.472;2023-08-12T02:32:28;23.93;;;16.50;;
4810;SDS011;2419;51.276;6.472;2023-08-12T02:34:56;24.60;;;17.50;;
4810;SDS011;2419;51.276;6.472;2023-08-12T02:37:24;25.30;;;17.33;;
4810;SDS011;2419;51.276;6.472;2023-08-12T02:39:52;25.70;;;17.23;;
4810;SDS011;2419;51.276;6.472;2023-08-12T02:42:20;26.00;;;18.10;;
4810;SDS011;2419;51.276;6.472;2023-08-12T02:44:48;36.10;;;17.70;;
4810;SDS011;2419;51.276;6.472;2023-08-12T02:47:18;28.33;;;18.87;;
4810;SDS011;2419;51.276;6.472;2023-08-12T02:49:46;30.20;;;17.23;;
4810;SDS011;2419;51.276;6.472;2023-08-12T02:52:14;38.73;;;21.60;;
4810;SDS011;2419;51.276;6.472;2023-08-12T02:54:42;32.17;;;19.27;;
4810;SDS011;2419;51.276;6.472;2023-08-12T02:57:10;37.33;;;20.10;;
4810;SDS011;2419;51.276;6.472;2023-08-12T02:59:39;33.43;;;19.67;;
4810;SDS011;2419;51.276;6.472;2023-08-12T03:02:07;40.80;;;20.90;;
4810;SDS011;2419;51.276;6.472;2023-08-12T03:04:37;33.63;;;21.00;;
4810;SDS011;2419;51.276;6.472;2023-08-12T03:07:05;35.57;;;20.90;;
4810;SDS011;2419;51.276;6.472;2023-08-12T03:09:33;37.50;;;21.70;;
4810;SDS011;2419;51.276;6.472;2023-08-12T03:12:03;38.13;;;23.47;;
4810;SDS011;2419;51.276;6.472;2023-08-12T03:14:31;31.33;;;20.70;;
4810;SDS011;2419;51.276;6.472;2023-08-12T03:17:00;39.87;;;21.70;;
4810;SDS011;2419;51.276;6.472;2023-08-12T03:19:29;36.50;;;20.87;;
4810;SDS011;2419;51.276;6.472;2023-08-12T03:21:59;38.20;;;22.03;;
4810;SDS011;2419;51.276;6.472;2023-08-12T03:24:28;34.10;;;20.60;;
4810;SDS011;2419;51.276;6.472;2023-08-12T03:26:56;31.13;;;19.80;;
4810;SDS011;2419;51.276;6.472;2023-08-12T03:29:24;30.97;;;19.70;;
4810;SDS011;2419;51.276;6.472;2023-08-12T03:31:53;30.90;;;20.07;;
4810;SDS011;2419;51.276;6.472;2023-08-12T03:34:22;36.20;;;19.83;;
4810;SDS011;2419;51.276;6.472;2023-08-12T03:36:50;28.73;;;20.73;;
4810;SDS011;2419;51.276;6.472;2023-08-12T03:39:20;28.30;;;19.07;;
4810;SDS011;2419;51.276;6.472;2023-08-12T03:41:48;38.30;;;19.43;;
4810;SDS011;2419;51.276;6.472;2023-08-12T03:44:17;30.87;;;18.27;;
4810;SDS011;2419;51.276;6.472;2023-08-12T03:46:46;31.33;;;18.80;;
4810;SDS011;2419;51.276;6.472;2023-08-12T03:49:14;29.20;;;17.67;;
4810;SDS011;2419;51.276;6.472;2023-08-12T03:51:46;23.57;;;14.93;;
4810;SDS011;2419;51.276;6.472;2023-08-12T03:54:14;30.17;;;15.47;;
4810;SDS011;2419;51.276;6.472;2023-08-12T03:56:43;25.13;;;16.50;;
4810;SDS011;2419;51.276;6.472;2023-08-12T03:59:11;24.00;;;15.77;;
4810;SDS011;2419;51.276;6.472;2023-08-12T04:01:40;27.10;;;15.20;;
4810;SDS011;2419;51.276;6.472;2023-08-12T04:04:09;29.17;;;15.07;;
4810;SDS011;2419;51.276;6.472;2023-08-12T04:06:39;27.67;;;15.20;;
4810;SDS011;2419;51.276;6.472;2023-08-12T04:09:08;25.37;;;16.00;;
4810;SDS011;2419;51.276;6.472;2023-08-12T04:11:36;20.87;;;13.27;;
4810;SDS011;2419;51.276;6.472;2023-08-12T04:14:05;20.53;;;14.80;;
4810;SDS011;2419;51.276;6.472;2023-08-12T04:16:33;19.87;;;14.50;;
4810;SDS011;2419;51.276;6.472;2023-08-12T04:19:01;25.07;;;13.50;;
4810;SDS011;2419;51.276;6.472;2023-08-12T04:21:29;23.43;;;15.07;;
4810;SDS011;2419;51.276;6.472;2023-08-12T04:23:57;22.97;;;14.63;;
4810;SDS011;2419;51.276;6.472;2023-08-12T04:26:25;22.60;;;14.60;;
4810;SDS011;2419;51.276;6.472;2023-08-12T04:28:54;19.90;;;14.73;;
4810;SDS011;2419;51.276;6.472;2023-08-12T04:31:24;21.67;;;14.40;;
4810;SDS011;2419;51.276;6.472;2023-08-12T04:33:52;22.27;;;14.40;;
4810;SDS011;2419;51.276;6.472;2023-08-12T04:36:22;21.60;;;13.80;;
4810;SDS011;2419;51.276;6.472;2023-08-12T04:38:51;22.53;;;14.70;;
4810;SDS011;2419;51.276;6.472;2023-08-12T04:41:20;21.20;;;13.47;;
4810;SDS011;2419;51.276;6.472;2023-08-12T04:43:51;22.23;;;14.70;;
4810;SDS011;2419;51.276;6.472;2023-08-12T04:46:23;26.33;;;15.70;;
4810;SDS011;2419;51.276;6.472;2023-08-12T04:48:52;24.60;;;15.37;;
4810;SDS011;2419;51.276;6.472;2023-08-12T04:51:20;23.77;;;14.93;;
4810;SDS011;2419;51.276;6.472;2023-08-12T04:53:48;23.93;;;16.07;;
4810;SDS011;2419;51.276;6.472;2023-08-12T04:56:16;23.33;;;14.83;;
4810;SDS011;2419;51.276;6.472;2023-08-12T04:58:44;21.73;;;14.10;;
4810;SDS011;2419;51.276;6.472;2023-08-12T05:01:12;23.43;;;14.90;;
4810;SDS011;2419;51.276;6.472;2023-08-12T05:03:42;24.60;;;15.37;;
4810;SDS011;2419;51.276;6.472;2023-08-12T05:06:10;26.60;;;15.60;;
4810;SDS011;2419;51.276;6.472;2023-08-12T05:08:39;25.87;;;16.10;;
4810;SDS011;2419;51.276;6.472;2023-08-12T05:11:07;29.50;;;18.00;;
4810;SDS011;2419;51.276;6.472;2023-08-12T05:13:35;24.93;;;16.00;;
4810;SDS011;2419;51.276;6.472;2023-08-12T05:16:03;28.13;;;16.97;;
4810;SDS011;2419;51.276;6.472;2023-08-12T05:18:31;28.10;;;17.50;;
4810;SDS011;2419;51.276;6.472;2023-08-12T05:21:01;27.00;;;18.27;;
4810;SDS011;2419;51.276;6.472;2023-08-12T05:23:29;30.33;;;19.37;;
4810;SDS011;2419;51.276;6.472;2023-08-12T05:25:57;28.83;;;18.60;;
4810;SDS011;2419;51.276;6.472;2023-08-12T05:28:25;29.67;;;17.93;;
4810;SDS011;2419;51.276;6.472;2023-08-12T05:30:53;33.20;;;18.63;;
4810;SDS011;2419;51.276;6.472;2023-08-12T05:33:21;34.87;;;19.27;;
4810;SDS011;2419;51.276;6.472;2023-08-12T05:35:50;33.10;;;21.00;;
4810;SDS011;2419;51.276;6.472;2023-08-12T05:38:19;30.97;;;18.70;;
4810;SDS011;2419;51.276;6.472;2023-08-12T05:40:47;36.13;;;20.00;;
4810;SDS011;2419;51.276;6.472;2023-08-12T05:43:16;41.73;;;22.20;;
4810;SDS011;2419;51.276;6.472;2023-08-12T05:45:44;36.50;;;20.73;;
4810;SDS011;2419;51.276;6.472;2023-08-12T05:48:12;33.47;;;21.30;;
4810;SDS011;2419;51.276;6.472;2023-08-12T05:50:40;34.03;;;21.97;;
4810;SDS011;2419;51.276;6.472;2023-08-12T05:53:08;37.87;;;22.80;;
4810;SDS011;2419;51.276;6.472;2023-08-12T05:55:37;36.50;;;19.97;;
4810;SDS011;2419;51.276;6.472;2023-08-12T05:58:05;34.43;;;19.80;;
4810;SDS011;2419;51.276;6.472;2023-08-12T06:00:34;34.77;;;21.57;;
4810;SDS011;2419;51.276;6.472;2023-08-12T06:03:02;34.97;;;21.13;;
4810;SDS011;2419;51.276;6.472;2023-08-12T06:05:31;31.97;;;19.80;;
4810;SDS011;2419;51.276;6.472;2023-08-12T06:07:59;36.67;;;21.90;;
4810;SDS011;2419;51.276;6.472;2023-08-12T06:10:27;31.77;;;19.97;;
4810;SDS011;2419;51.276;6.472;2023-08-12T06:12:56;28.97;;;19.30;;
4810;SDS011;2419;51.276;6.472;2023-08-12T06:15:24;28.53;;;17.77;;
4810;SDS011;2419;51.276;6.472;2023-08-12T06:17:52;30.60;;;20.17;;
4810;SDS011;2419;51.276;6.472;2023-08-12T06:20:21;33.20;;;19.40;;
4810;SDS011;2419;51.276;6.472;2023-08-12T06:22:50;33.03;;;18.73;;
4810;SDS011;2419;51.276;6.472;2023-08-12T06:25:18;26.23;;;17.10;;
4810;SDS011;2419;51.276;6.472;2023-08-12T06:27:46;31.87;;;17.77;;
4810;SDS011;2419;51.276;6.472;2023-08-12T06:30:16;26.43;;;16.53;;
4810;SDS011;2419;51.276;6.472;2023-08-12T06:32:44;24.27;;;16.67;;
4810;SDS011;2419;51.276;6.472;2023-08-12T06:35:12;26.43;;;16.73;;
4810;SDS011;2419;51.276;6.472;2023-08-12T06:37:40;22.20;;;15.87;;
4810;SDS011;2419;51.276;6.472;2023-08-12T06:40:09;20.60;;;14.30;;
4810;SDS011;2419;51.276;6.472;2023-08-12T06:42:37;19.77;;;13.70;;
4810;SDS011;2419;51.276;6.472;2023-08-12T06:45:06;18.50;;;13.70;;
4810;SDS011;2419;51.276;6.472;2023-08-12T06:47:36;21.10;;;13.17;;
4810;SDS011;2419;51.276;6.472;2023-08-12T06:50:04;20.53;;;13.73;;
4810;SDS011;2419;51.276;6.472;2023-08-12T06:52:33;17.83;;;12.80;;
4810;SDS011;2419;51.276;6.472;2023-08-12T06:55:01;19.50;;;12.57;;
4810;SDS011;2419;51.276;6.472;2023-08-12T06:57:29;19.03;;;13.50;;
4810;SDS011;2419;51.276;6.472;2023-08-12T06:59:57;17.73;;;11.90;;
4810;SDS011;2419;51.276;6.472;2023-08-12T07:02:25;15.30;;;10.47;;
4810;SDS011;2419;51.276;6.472;2023-08-12T07:04:55;14.83;;;10.43;;
4810;SDS011;2419;51.276;6.472;2023-08-12T07:07:23;14.73;;;9.50;;
4810;SDS011;2419;51.276;6.472;2023-08-12T07:09:51;11.97;;;8.20;;
4810;SDS011;2419;51.276;6.472;2023-08-12T07:12:19;13.70;;;9.83;;
4810;SDS011;2419;51.276;6.472;2023-08-12T07:14:47;11.40;;;8.33;;
4810;SDS011;2419;51.276;6.472;2023-08-12T07:17:15;10.63;;;9.03;;
4810;SDS011;2419;51.276;6.472;2023-08-12T07:19:43;11.43;;;9.13;;
4810;SDS011;2419;51.276;6.472;2023-08-12T07:22:12;10.77;;;7.77;;
4810;SDS011;2419;51.276;6.472;2023-08-12T07:24:42;13.67;;;8.20;;
4810;SDS011;2419;51.276;6.472;2023-08-12T07:27:10;9.90;;;6.90;;
4810;SDS011;2419;51.276;6.472;2023-08-12T07:29:38;9.63;;;7.00;;
4810;SDS011;2419;51.276;6.472;2023-08-12T07:32:08;8.50;;;6.57;;
4810;SDS011;2419;51.276;6.472;2023-08-12T07:34:36;13.50;;;7.70;;
4810;SDS011;2419;51.276;6.472;2023-08-12T07:37:05;5.03;;;4.43;;
4810;SDS011;2419;51.276;6.472;2023-08-12T07:39:34;6.60;;;4.57;;
4810;SDS011;2419;51.276;6.472;2023-08-12T07:42:02;7.20;;;4.40;;
4810;SDS011;2419;51.276;6.472;2023-08-12T07:44:30;4.90;;;3.37;;
4810;SDS011;2419;51.276;6.472;2023-08-12T07:46:58;4.70;;;3.33;;
4810;SDS011;2419;51.276;6.472;2023-08-12T07:49:26;3.13;;;2.77;;
4810;SDS011;2419;51.276;6.472;2023-08-12T07:51:54;4.50;;;2.93;;
4810;SDS011;2419;51.276;6.472;2023-08-12T07:54:22;4.37;;;2.80;;
4810;SDS011;2419;51.276;6.472;2023-08-12T07:56:52;4.13;;;3.00;;
4810;SDS011;2419;51.276;6.472;2023-08-12T07:59:20;6.00;;;2.60;;
4810;SDS011;2419;51.276;6.472;2023-08-12T08:01:48;4.00;;;2.63;;
4810;SDS011;2419;51.276;6.472;2023-08-12T08:04:16;3.60;;;3.00;;
4810;SDS011;2419;51.276;6.472;2023-08-12T08:06:45;2.67;;;2.30;;
4810;SDS011;2419;51.276;6.472;2023-08-12T08:09:16;3.60;;;2.13;;
4810;SDS011;2419;51.276;6.472;2023-08-12T08:11:44;2.20;;;2.03;;
4810;SDS011;2419;51.276;6.472;2023-08-12T08:14:14;2.63;;;2.17;;
4810;SDS011;2419;51.276;6.472;2023-08-12T08:16:42;2.37;;;2.00;;
4810;SDS011;2419;51.276;6.472;2023-08-12T08:19:10;3.47;;;2.03;;
4810;SDS011;2419;51.276;6.472;2023-08-12T08:21:39;2.03;;;1.90;;
4810;SDS011;2419;51.276;6.472;2023-08-12T08:24:07;6.27;;;2.10;;
4810;SDS011;2419;51.276;6.472;2023-08-12T08:26:37;2.50;;;2.07;;
4810;SDS011;2419;51.276;6.472;2023-08-12T08:29:06;2.10;;;1.90;;
4810;SDS011;2419;51.276;6.472;2023-08-12T08:31:36;6.70;;;2.53;;
4810;SDS011;2419;51.276;6.472;2023-08-12T08:34:04;5.73;;;3.70;;
4810;SDS011;2419;51.276;6.472;2023-08-12T08:36:33;2.80;;;2.50;;
4810;SDS011;2419;51.276;6.472;2023-08-12T08:39:01;2.07;;;1.87;;
4810;SDS011;2419;51.276;6.472;2023-08-12T08:41:30;2.00;;;1.80;;
4810;SDS011;2419;51.276;6.472;2023-08-12T08:44:00;1.70;;;1.60;;
4810;SDS011;2419;51.276;6.472;2023-08-12T08:46:29;2.20;;;2.00;;
4810;SDS011;2419;51.276;6.472;2023-08-12T08:48:59;1.80;;;1.63;;
4810;SDS011;2419;51.276;6.472;2023-08-12T08:51:28;1.80;;;1.67;;
4810;SDS011;2419;51.276;6.472;2023-08-12T08:53:58;2.20;;;2.00;;
4810;SDS011;2419;51.276;6.472;2023-08-12T08:56:29;2.70;;;2.10;;
4810;SDS011;2419;51.276;6.472;2023-08-12T08:58:59;1.90;;;1.70;;
4810;SDS011;2419;51.276;6.472;2023-08-12T09:01:28;2.10;;;1.90;;
4810;SDS011;2419;51.276;6.472;2023-08-12T09:03:59;2.00;;;1.70;;
4810;SDS011;2419;51.276;6.472;2023-08-12T09:06:30;1.70;;;1.60;;
4810;SDS011;2419;51.276;6.472;2023-08-12T09:08:59;2.90;;;1.63;;
4810;SDS011;2419;51.276;6.472;2023-08-12T09:11:29;1.90;;;1.57;;
4810;SDS011;2419;51.276;6.472;2023-08-12T09:13:58;2.20;;;1.50;;
4810;SDS011;2419;51.276;6.472;2023-08-12T09:16:26;1.90;;;1.80;;
4810;SDS011;2419;51.276;6.472;2023-08-12T09:18:55;1.93;;;1.60;;
4810;SDS011;2419;51.276;6.472;2023-08-12T09:21:24;2.40;;;1.50;;
4810;SDS011;2419;51.276;6.472;2023-08-12T09:23:52;3.43;;;1.83;;
4810;SDS011;2419;51.276;6.472;2023-08-12T09:26:22;1.97;;;1.60;;
4810;SDS011;2419;51.276;6.472;2023-08-12T09:28:50;3.53;;;1.53;;
4810;SDS011;2419;51.276;6.472;2023-08-12T09:31:23;2.03;;;1.53;;
4810;SDS011;2419;51.276;6.472;2023-08-12T09:33:53;1.60;;;1.50;;
4810;SDS011;2419;51.276;6.472;2023-08-12T09:36:25;2.73;;;1.37;;
4810;SDS011;2419;51.276;6.472;2023-08-12T09:38:55;1.63;;;1.37;;
4810;SDS011;2419;51.276;6.472;2023-08-12T09:41:24;1.83;;;1.47;;
4810;SDS011;2419;51.276;6.472;2023-08-12T09:43:53;1.53;;;1.43;;
4810;SDS011;2419;51.276;6.472;2023-08-12T09:46:22;2.60;;;1.70;;
4810;SDS011;2419;51.276;6.472;2023-08-12T09:48:51;1.60;;;1.50;;
4810;SDS011;2419;51.276;6.472;2023-08-12T09:51:20;1.70;;;1.60;;
4810;SDS011;2419;51.276;6.472;2023-08-12T09:53:50;1.53;;;1.43;;
4810;SDS011;2419;51.276;6.472;2023-08-12T09:56:19;1.60;;;1.50;;
4810;SDS011;2419;51.276;6.472;2023-08-12T09:58:50;1.50;;;1.40;;
4810;SDS011;2419;51.276;6.472;2023-08-12T10:01:21;2.07;;;1.67;;
4810;SDS011;2419;51.276;6.472;2023-08-12T10:03:50;1.43;;;1.33;;
4810;SDS011;2419;51.276;6.472;2023-08-12T10:06:18;1.40;;;1.30;;
4810;SDS011;2419;51.276;6.472;2023-08-12T10:08:47;1.43;;;1.33;;
4810;SDS011;2419;51.276;6.472;2023-08-12T10:11:17;1.37;;;1.27;;
4810;SDS011;2419;51.276;6.472;2023-08-12T10:13:46;1.37;;;1.27;;
4810;SDS011;2419;51.276;6.472;2023-08-12T10:16:15;1.30;;;1.20;;
4810;SDS011;2419;51.276;6.472;2023-08-12T10:18:44;1.90;;;1.40;;
4810;SDS011;2419;51.276;6.472;2023-08-12T10:21:14;2.50;;;1.63;;
4810;SDS011;2419;51.276;6.472;2023-08-12T10:23:43;1.63;;;1.53;;
4810;SDS011;2419;51.276;6.472;2023-08-12T10:26:14;1.13;;;1.03;;
4810;SDS011;2419;51.276;6.472;2023-08-12T10:28:44;1.17;;;1.07;;
4810;SDS011;2419;51.276;6.472;2023-08-12T10:31:12;1.20;;;1.10;;
4810;SDS011;2419;51.276;6.472;2023-08-12T10:33:40;1.47;;;1.37;;
4810;SDS011;2419;51.276;6.472;2023-08-12T10:36:09;1.17;;;1.07;;
4810;SDS011;2419;51.276;6.472;2023-08-12T10:38:37;1.43;;;1.00;;
4810;SDS011;2419;51.276;6.472;2023-08-12T10:41:19;1.20;;;1.10;;
4810;SDS011;2419;51.276;6.472;2023-08-12T10:43:48;1.30;;;1.20;;
4810;SDS011;2419;51.276;6.472;2023-08-12T10:46:22;1.20;;;1.10;;
4810;SDS011;2419;51.276;6.472;2023-08-12T10:48:56;4.93;;;1.00;;
4810;SDS011;2419;51.276;6.472;2023-08-12T10:54:14;1.30;;;1.03;;
4810;SDS011;2419;51.276;6.472;2023-08-12T10:59:50;1.37;;;1.27;;
4810;SDS011;2419;51.276;6.472;2023-08-12T11:02:20;1.30;;;1.20;;
4810;SDS011;2419;51.276;6.472;2023-08-12T11:04:52;1.40;;;1.30;;
4810;SDS011;2419;51.276;6.472;2023-08-12T11:07:22;1.17;;;1.00;;
4810;SDS011;2419;51.276;6.472;2023-08-12T11:09:58;1.20;;;1.10;;
4810;SDS011;2419;51.276;6.472;2023-08-12T11:12:30;1.20;;;1.10;;
4810;SDS011;2419;51.276;6.472;2023-08-12T11:15:01;1.23;;;1.13;;
4810;SDS011;2419;51.276;6.472;2023-08-12T11:17:34;1.00;;;1.00;;
4810;SDS011;2419;51.276;6.472;2023-08-12T11:20:04;1.40;;;1.30;;
4810;SDS011;2419;51.276;6.472;2023-08-12T11:22:35;1.53;;;1.43;;
4810;SDS011;2419;51.276;6.472;2023-08-12T11:28:12;1.43;;;1.33;;
4810;SDS011;2419;51.276;6.472;2023-08-12T11:30:41;1.40;;;1.30;;
4810;SDS011;2419;51.276;6.472;2023-08-12T11:33:10;1.33;;;1.17;;
4810;SDS011;2419;51.276;6.472;2023-08-12T11:35:38;2.20;;;1.47;;
4810;SDS011;2419;51.276;6.472;2023-08-12T11:38:07;2.00;;;1.40;;
4810;SDS011;2419;51.276;6.472;2023-08-12T11:40:36;1.60;;;1.50;;
4810;SDS011;2419;51.276;6.472;2023-08-12T11:43:04;1.70;;;1.57;;
4810;SDS011;2419;51.276;6.472;2023-08-12T11:45:34;1.90;;;1.80;;
4810;SDS011;2419;51.276;6.472;2023-08-12T11:48:05;2.10;;;1.90;;
4810;SDS011;2419;51.276;6.472;2023-08-12T11:50:33;2.77;;;1.97;;
4810;SDS011;2419;51.276;6.472;2023-08-12T11:53:01;2.13;;;1.87;;
4810;SDS011;2419;51.276;6.472;2023-08-12T11:55:30;2.43;;;2.10;;
4810;SDS011;2419;51.276;6.472;2023-08-12T11:57:58;2.27;;;2.17;;
4810;SDS011;2419;51.276;6.472;2023-08-12T12:00:26;2.47;;;2.23;;
4810;SDS011;2419;51.276;6.472;2023-08-12T12:02:55;2.83;;;2.37;;
4810;SDS011;2419;51.276;6.472;2023-08-12T12:05:25;2.67;;;2.40;;
4810;SDS011;2419;51.276;6.472;2023-08-12T12:07:56;4.60;;;3.40;;
4810;SDS011;2419;51.276;6.472;2023-08-12T12:10:26;3.70;;;3.40;;
4810;SDS011;2419;51.276;6.472;2023-08-12T12:13:00;3.37;;;3.07;;
4810;SDS011;2419;51.276;6.472;2023-08-12T12:15:30;3.77;;;3.37;;
4810;SDS011;2419;51.276;6.472;2023-08-12T12:17:59;3.50;;;3.20;;
4810;SDS011;2419;51.276;6.472;2023-08-12T12:20:27;4.13;;;3.73;;
4810;SDS011;2419;51.276;6.472;2023-08-12T12:22:56;5.47;;;4.37;;
4810;SDS011;2419;51.276;6.472;2023-08-12T12:25:24;4.67;;;4.23;;
4810;SDS011;2419;51.276;6.472;2023-08-12T12:27:52;4.67;;;4.23;;
4810;SDS011;2419;51.276;6.472;2023-08-12T12:30:20;4.60;;;4.03;;
4810;SDS011;2419;51.276;6.472;2023-08-12T12:32:48;5.60;;;4.93;;
4810;SDS011;2419;51.276;6.472;2023-08-12T12:35:19;6.00;;;5.27;;
4810;SDS011;2419;51.276;6.472;2023-08-12T12:37:47;4.43;;;3.73;;
4810;SDS011;2419;51.276;6.472;2023-08-12T12:40:15;5.70;;;4.90;;
4810;SDS011;2419;51.276;6.472;2023-08-12T12:42:43;5.87;;;5.30;;
4810;SDS011;2419;51.276;6.472;2023-08-12T12:45:11;5.40;;;4.90;;
4810;SDS011;2419;51.276;6.472;2023-08-12T12:47:39;6.10;;;5.50;;
4810;SDS011;2419;51.276;6.472;2023-08-12T12:50:07;7.13;;;5.97;;
4810;SDS011;2419;51.276;6.472;2023-08-12T12:52:37;7.27;;;6.07;;
4810;SDS011;2419;51.276;6.472;2023-08-12T12:55:08;6.80;;;5.30;;
4810;SDS011;2419;51.276;6.472;2023-08-12T12:57:36;6.77;;;5.80;;
4810;SDS011;2419;51.276;6.472;2023-08-12T13:00:05;6.00;;;5.40;;
4810;SDS011;2419;51.276;6.472;2023-08-12T13:02:37;6.23;;;5.63;;
4810;SDS011;2419;51.276;6.472;2023-08-12T13:05:06;6.27;;;5.60;;
4810;SDS011;2419;51.276;6.472;2023-08-12T13:07:34;6.37;;;4.70;;
4810;SDS011;2419;51.276;6.472;2023-08-12T13:10:04;6.10;;;4.70;;
4810;SDS011;2419;51.276;6.472;2023-08-12T13:12:33;6.00;;;4.70;;
4810;SDS011;2419;51.276;6.472;2023-08-12T13:15:01;6.97;;;5.10;;
4810;SDS011;2419;51.276;6.472;2023-08-12T13:17:30;4.60;;;4.20;;
4810;SDS011;2419;51.276;6.472;2023-08-12T13:19:58;5.30;;;4.70;;
4810;SDS011;2419;51.276;6.472;2023-08-12T13:22:26;6.17;;;5.57;;
4810;SDS011;2419;51.276;6.472;2023-08-12T13:24:54;5.93;;;5.43;;
4810;SDS011;2419;51.276;6.472;2023-08-12T13:27:24;5.87;;;5.30;;
4810;SDS011;2419;51.276;6.472;2023-08-12T13:29:52;7.73;;;6.27;;
4810;SDS011;2419;51.276;6.472;2023-08-12T13:32:20;6.63;;;5.93;;
4810;SDS011;2419;51.276;6.472;2023-08-12T13:34:48;7.63;;;6.23;;
4810;SDS011;2419;51.276;6.472;2023-08-12T13:37:16;5.47;;;4.97;;
4810;SDS011;2419;51.276;6.472;2023-08-12T13:39:44;6.30;;;5.27;;
4810;SDS011;2419;51.276;6.472;2023-08-12T13:42:12;6.40;;;5.50;;
4810;SDS011;2419;51.276;6.472;2023-08-12T13:44:42;7.27;;;5.50;;
4810;SDS011;2419;51.276;6.472;2023-08-12T13:47:10;6.20;;;4.97;;
4810;SDS011;2419;51.276;6.472;2023-08-12T13:49:38;5.43;;;4.40;;
4810;SDS011;2419;51.276;6.472;2023-08-12T13:52:06;6.87;;;4.90;;
4810;SDS011;2419;51.276;6.472;2023-08-12T13:54:34;6.57;;;5.40;;
4810;SDS011;2419;51.276;6.472;2023-08-12T13:57:02;4.70;;;4.20;;
4810;SDS011;2419;51.276;6.472;2023-08-12T13:59:30;5.20;;;4.70;;
4810;SDS011;2419;51.276;6.472;2023-08-12T14:02:00;6.10;;;4.13;;
4810;SDS011;2419;51.276;6.472;2023-08-12T14:04:29;4.73;;;3.70;;
4810;SDS011;2419;51.276;6.472;2023-08-12T14:06:57;5.30;;;4.57;;
4810;SDS011;2419;51.276;6.472;2023-08-12T14:09:25;3.97;;;3.53;;
4810;SDS011;2419;51.276;6.472;2023-08-12T14:11:53;4.47;;;4.03;;
4810;SDS011;2419;51.276;6.472;2023-08-12T14:14:21;4.17;;;3.50;;
4810;SDS011;2419;51.276;6.472;2023-08-12T14:16:49;4.80;;;3.17;;
4810;SDS011;2419;51.276;6.472;2023-08-12T14:19:18;4.03;;;3.40;;
4810;SDS011;2419;51.276;6.472;2023-08-12T14:21:46;5.10;;;3.23;;
4810;SDS011;2419;51.276;6.472;2023-08-12T14:24:15;3.17;;;2.90;;
4810;SDS011;2419;51.276;6.472;2023-08-12T14:26:43;5.80;;;3.53;;
4810;SDS011;2419;51.276;6.472;2023-08-12T14:29:11;3.47;;;3.17;;
4810;SDS011;2419;51.276;6.472;2023-08-12T14:31:39;3.30;;;3.00;;
4810;SDS011;2419;51.276;6.472;2023-08-12T14:34:07;5.23;;;2.90;;
4810;SDS011;2419;51.276;6.472;2023-08-12T14:36:36;3.60;;;3.13;;
4810;SDS011;2419;51.276;6.472;2023-08-12T14:39:04;3.90;;;3.30;;
4810;SDS011;2419;51.276;6.472;2023-08-12T14:41:33;4.17;;;3.37;;
4810;SDS011;2419;51.276;6.472;2023-08-12T14:44:01;3.10;;;2.57;;
4810;SDS011;2419;51.276;6.472;2023-08-12T14:46:29;6.80;;;2.70;;
4810;SDS011;2419;51.276;6.472;2023-08-12T14:48:57;3.70;;;2.93;;
4810;SDS011;2419;51.276;6.472;2023-08-12T14:51:25;4.77;;;2.83;;
4810;SDS011;2419;51.276;6.472;2023-08-12T14:53:57;14.07;;;3.73;;
4810;SDS011;2419;51.276;6.472;2023-08-12T14:56:25;4.40;;;3.20;;
4810;SDS011;2419;51.276;6.472;2023-08-12T14:58:53;3.13;;;2.67;;
4810;SDS011;2419;51.276;6.472;2023-08-12T15:01:21;7.67;;;2.90;;
4810;SDS011;2419;51.276;6.472;2023-08-12T15:03:51;3.30;;;2.90;;
4810;SDS011;2419;51.276;6.472;2023-08-12T15:06:21;7.63;;;2.73;;
4810;SDS011;2419;51.276;6.472;2023-08-12T15:08:49;5.37;;;2.97;;
4810;SDS011;2419;51.276;6.472;2023-08-12T15:11:19;3.73;;;2.93;;
4810;SDS011;2419;51.276;6.472;2023-08-12T15:13:47;3.53;;;2.97;;
4810;SDS011;2419;51.276;6.472;2023-08-12T15:16:15;2.83;;;2.60;;
4810;SDS011;2419;51.276;6.472;2023-08-12T15:18:43;6.07;;;3.20;;
4810;SDS011;2419;51.276;6.472;2023-08-12T15:21:11;4.77;;;3.10;;